West Columbia, Texas
Current Conditions -  °F | °C
As of 10:12 AM on Friday 19 Dec 2014 (Local Time) from KLBX Reporting Station
Heavy Rain Heavy Rain  
Wind Chill: 59°   Ceiling: 900
Heat Index: 59°   Visibility: 3mi
Dew Point: 59°   Wind: 10mph
Humidity: 100%   Direction: 50°NE
Pressure: 30.04"   Gusts: NA
Location:  29.14°N, 95.65°W
Report Text: KLBX 191612Z AUTO 05009KT 3SM +RA BR OVC009 15/15 A3004 RMK AO2 P0011 T01500150
Loading
Personal Weather Stations






























Interactive Weather Map New forecast layout! Learn more

10-Day Weather Forecast

Advertisements
Track Severe Weather on mobile